Home > Products > Valid Products > TAF

000
FTUS45 KBYZ 261134
TAFBIL
TAF
KBIL 261134Z 2612/2712 23005KT 1SM -SN BR BKN001 OVC012
     FM261530 18006KT 2SM -SN BR OVC005
     FM261900 06008KT 4SM -SN BR OVC015
     FM262200 10008KT P6SM VCSH SCT040 OVC060
     FM270400 22009KT P6SM BKN100=



000
FTUS45 KBYZ 261134
TAFSHR
TAF
KSHR 261134Z 2612/2712 28007KT P6SM BKN040 OVC070
     FM261600 15004KT 4SM -SN BR SCT020 OVC030
     FM262000 16004KT P6SM VCSH SCT030 OVC060=



000
FTUS45 KBYZ 261134
TAFMLS
TAF
KMLS 261134Z 2612/2712 00000KT P6SM OVC012
     FM261700 34006KT 3SM -SN BR OVC012
     FM262000 04006KT 2SM -SN BR OVC012
     FM270300 12009KT P6SM VCSH BKN015=



000
FTUS45 KBYZ 261134
TAFLVM
TAF
KLVM 261134Z 2612/2712 09005KT 1SM -SN BR VV008
     FM261600 VRB04KT 3SM -SN BR OVC018
     FM261900 22014KT 6SM -SN BKN025 OVC030
     FM262200 22020G30KT P6SM SCT030 BKN060=



000
FTUS45 KBYZ 261134
TAFLVM
TAF
KLVM 261134Z 2612/2712 09005KT 1SM -SN BR VV008
     FM261600 VRB04KT 3SM -SN BR OVC018
     FM261900 22014KT 6SM -SN BKN025 OVC030
     FM262200 22020G30KT P6SM SCT030 BKN060=



000
FTUS45 KBYZ 261134
TAFMLS
TAF
KMLS 261134Z 2612/2712 00000KT P6SM OVC012
     FM261700 34006KT 3SM -SN BR OVC012
     FM262000 04006KT 2SM -SN BR OVC012
     FM270300 12009KT P6SM VCSH BKN015=



000
FTUS45 KBYZ 261134
TAFBIL
TAF
KBIL 261134Z 2612/2712 23005KT 1SM -SN BR BKN001 OVC012
     FM261530 18006KT 2SM -SN BR OVC005
     FM261900 06008KT 4SM -SN BR OVC015
     FM262200 10008KT P6SM VCSH SCT040 OVC060
     FM270400 22009KT P6SM BKN100=



000
FTUS45 KBYZ 261134
TAFSHR
TAF
KSHR 261134Z 2612/2712 28007KT P6SM BKN040 OVC070
     FM261600 15004KT 4SM -SN BR SCT020 OVC030
     FM262000 16004KT P6SM VCSH SCT030 OVC060=



000
FTUS45 KBYZ 261046 AAB
TAFBIL
TAF AMD
KBIL 261046Z 2611/2706 22006KT 1SM -SN BR BKN001 OVC005
     FM261400 32006KT 2SM -SN BR OVC005
     FM261800 06008KT 3SM -SN BR SCT020 OVC030
     FM262200 10008KT P6SM VCSH SCT040 OVC060=



000
FTUS45 KBYZ 261046 AAB
TAFBIL
TAF AMD
KBIL 261046Z 2611/2706 22006KT 1SM -SN BR BKN001 OVC005
     FM261400 32006KT 2SM -SN BR OVC005
     FM261800 06008KT 3SM -SN BR SCT020 OVC030
     FM262200 10008KT P6SM VCSH SCT040 OVC060=



000
FTUS45 KBYZ 261042 AAB
TAFLVM
TAF AMD
KLVM 261042Z 2611/2706 09005KT 1SM -SN BR OVC012
     FM261300 VRB04KT 3SM -SN BR OVC018
     FM261600 22014KT 6SM -SN BKN025 OVC030
     FM262000 22020G30KT P6SM SCT030 BKN060=



000
FTUS45 KBYZ 261042 AAB
TAFLVM
TAF AMD
KLVM 261042Z 2611/2706 09005KT 1SM -SN BR OVC012
     FM261300 VRB04KT 3SM -SN BR OVC018
     FM261600 22014KT 6SM -SN BKN025 OVC030
     FM262000 22020G30KT P6SM SCT030 BKN060=



000
FTUS45 KBYZ 260828 AAA
TAFBIL
TAF AMD
KBIL 260828Z 2608/2706 24008KT 1SM -SN BR BKN002 OVC015
     FM261100 VRB03KT 2SM -SN BR OVC015
     FM261800 06008KT 3SM -SN BR SCT020 OVC030
     FM262200 10008KT P6SM VCSH SCT040 OVC060=



000
FTUS45 KBYZ 260828 AAA
TAFBIL
TAF AMD
KBIL 260828Z 2608/2706 24008KT 1SM -SN BR BKN002 OVC015
     FM261100 VRB03KT 2SM -SN BR OVC015
     FM261800 06008KT 3SM -SN BR SCT020 OVC030
     FM262200 10008KT P6SM VCSH SCT040 OVC060=



000
FTUS45 KBYZ 260622 AAA
TAFLVM
TAF AMD
KLVM 260622Z 2606/2706 09005KT 1SM -SN BR BKN006 OVC011
     FM261000 24010KT 3SM -SN BR OVC012
     FM261600 22014KT 6SM -SN BKN025 OVC030
     FM262000 22020G30KT P6SM SCT030 BKN060=



000
FTUS45 KBYZ 260622 AAA
TAFLVM
TAF AMD
KLVM 260622Z 2606/2706 09005KT 1SM -SN BR BKN006 OVC011
     FM261000 24010KT 3SM -SN BR OVC012
     FM261600 22014KT 6SM -SN BKN025 OVC030
     FM262000 22020G30KT P6SM SCT030 BKN060=



000
FTUS45 KBYZ 260530
TAFMLS
TAF
KMLS 260530Z 2606/2706 36010KT P6SM OVC012
     FM261000 36008KT P6SM VCSH OVC012
     FM261400 34006KT 3SM -SN BR OVC012
     FM262000 04006KT 2SM -SN BR OVC012=



000
FTUS45 KBYZ 260530
TAFBIL
TAF
KBIL 260530Z 2606/2706 31010KT 5SM -SN BR SCT030 OVC050
     FM260800 04006KT 2SM -SN BR OVC015
     FM261200 04006KT 1SM -SN BR OVC015
     FM261800 06008KT 3SM -SN BR SCT020 OVC030
     FM262200 10008KT P6SM VCSH SCT040 OVC060=



000
FTUS45 KBYZ 260530
TAFBIL
TAF
KBIL 260530Z 2606/2706 31010KT 5SM -SN BR SCT030 OVC050
     FM260800 04006KT 2SM -SN BR OVC015
     FM261200 04006KT 1SM -SN BR OVC015
     FM261800 06008KT 3SM -SN BR SCT020 OVC030
     FM262200 10008KT P6SM VCSH SCT040 OVC060=



000
FTUS45 KBYZ 260530
TAFSHR
TAF
KSHR 260530Z 2606/2706 31016KT 5SM -SN BR OVC030
     FM261000 16008KT 2SM -SN BR SCT012 OVC020
     FM261600 15004KT 4SM -SN BR SCT020 OVC030
     FM262000 16004KT P6SM VCSH SCT030 OVC060=



000
FTUS45 KBYZ 260530
TAFLVM
TAF
KLVM 260530Z 2606/2706 26006KT 1SM -SN BR OVC012
     FM261000 24010KT 4SM -SN BR OVC025
     FM261600 22014KT 6SM -SN BKN025 OVC030
     FM262000 22020G30KT P6SM SCT030 BKN060=



000
FTUS45 KBYZ 260530
TAFMLS
TAF
KMLS 260530Z 2606/2706 36010KT P6SM OVC012
     FM261000 36008KT P6SM VCSH OVC012
     FM261400 34006KT 3SM -SN BR OVC012
     FM262000 04006KT 2SM -SN BR OVC012=



000
FTUS45 KBYZ 260530
TAFSHR
TAF
KSHR 260530Z 2606/2706 31016KT 5SM -SN BR OVC030
     FM261000 16008KT 2SM -SN BR SCT012 OVC020
     FM261600 15004KT 4SM -SN BR SCT020 OVC030
     FM262000 16004KT P6SM VCSH SCT030 OVC060=



000
FTUS45 KBYZ 260530
TAFLVM
TAF
KLVM 260530Z 2606/2706 26006KT 1SM -SN BR OVC012
     FM261000 24010KT 4SM -SN BR OVC025
     FM261600 22014KT 6SM -SN BKN025 OVC030
     FM262000 22020G30KT P6SM SCT030 BKN060=



000
FTUS45 KBYZ 260323 AAB
TAFSHR
TAF AMD
KSHR 260323Z 2603/2624 31016KT 2SM -SN BR SCT008 OVC015
     FM260800 16008KT 2SM -SN BR SCT008 OVC015
     FM261400 15004KT 4SM -SN BR SCT020 OVC040
     FM261800 16004KT P6SM VCSH SCT030 OVC060=



000
FTUS45 KBYZ 260323 AAB
TAFSHR
TAF AMD
KSHR 260323Z 2603/2624 31016KT 2SM -SN BR SCT008 OVC015
     FM260800 16008KT 2SM -SN BR SCT008 OVC015
     FM261400 15004KT 4SM -SN BR SCT020 OVC040
     FM261800 16004KT P6SM VCSH SCT030 OVC060=



000
FTUS45 KBYZ 260207 AAA
TAFSHR
TAF AMD
KSHR 260207Z 2602/2624 30014G24KT P6SM -SN OVC035
     FM260600 16004KT 2SM -SN BR SCT015 OVC020
     FM261400 15004KT 4SM -SN BR SCT020 OVC040
     FM261800 16004KT P6SM VCSH SCT030 OVC060=



000
FTUS45 KBYZ 260207 AAA
TAFSHR
TAF AMD
KSHR 260207Z 2602/2624 30014G24KT P6SM -SN OVC035
     FM260600 16004KT 2SM -SN BR SCT015 OVC020
     FM261400 15004KT 4SM -SN BR SCT020 OVC040
     FM261800 16004KT P6SM VCSH SCT030 OVC060=



000
FTUS45 KBYZ 252335
TAFBIL
TAF
KBIL 252335Z 2600/2624 33014G24KT P6SM VCSH SCT040 OVC060
     FM260400 36010KT 3SM -SN BR OVC015
     FM260800 04006KT 2SM -SN BR OVC015
     FM261200 04006KT 1SM -SN BR OVC015
     FM261800 06008KT P6SM VCSH SCT020 OVC040=



000
FTUS45 KBYZ 252335
TAFLVM
TAF
KLVM 252335Z 2600/2624 35014KT 1SM -SN BR OVC012
      TEMPO 2600/2604 1/2SM SN OVC008
     FM261000 24012KT 4SM -SN BR OVC025
     FM261600 22014KT 6SM -SN BKN025 OVC030
     FM262000 22020G30KT P6SM SCT030 BKN060=



000
FTUS45 KBYZ 252335
TAFSHR
TAF
KSHR 252335Z 2600/2624 30016KT 1SM -SN OVC008
      TEMPO 2600/2604 1/2SM SN SCT005 OVC006
     FM260600 16004KT 2SM -SN BR SCT015 OVC020
     FM261000 15004KT 4SM -SN BR SCT020 OVC040
     FM261800 16004KT P6SM VCSH SCT030 OVC060=



000
FTUS45 KBYZ 252335
TAFMLS
TAF
KMLS 252335Z 2600/2624 32016G26KT P6SM SCT040
     FM260600 33014KT P6SM VCSH SCT040 BKN060
     FM261200 34006KT 4SM -SN BR SCT015 OVC020
     FM261800 04006KT 2SM -SN BR OVC015=



000
FTUS45 KBYZ 252335
TAFBIL
TAF
KBIL 252335Z 2600/2624 33014G24KT P6SM VCSH SCT040 OVC060
     FM260400 36010KT 3SM -SN BR OVC015
     FM260800 04006KT 2SM -SN BR OVC015
     FM261200 04006KT 1SM -SN BR OVC015
     FM261800 06008KT P6SM VCSH SCT020 OVC040=



000
FTUS45 KBYZ 252335
TAFLVM
TAF
KLVM 252335Z 2600/2624 35014KT 1SM -SN BR OVC012
      TEMPO 2600/2604 1/2SM SN OVC008
     FM261000 24012KT 4SM -SN BR OVC025
     FM261600 22014KT 6SM -SN BKN025 OVC030
     FM262000 22020G30KT P6SM SCT030 BKN060=



000
FTUS45 KBYZ 252335
TAFSHR
TAF
KSHR 252335Z 2600/2624 30016KT 1SM -SN OVC008
      TEMPO 2600/2604 1/2SM SN SCT005 OVC006
     FM260600 16004KT 2SM -SN BR SCT015 OVC020
     FM261000 15004KT 4SM -SN BR SCT020 OVC040
     FM261800 16004KT P6SM VCSH SCT030 OVC060=



000
FTUS45 KBYZ 252335
TAFMLS
TAF
KMLS 252335Z 2600/2624 32016G26KT P6SM SCT040
     FM260600 33014KT P6SM VCSH SCT040 BKN060
     FM261200 34006KT 4SM -SN BR SCT015 OVC020
     FM261800 04006KT 2SM -SN BR OVC015=



000
FTUS45 KBYZ 252222 AAC
TAFSHR
TAF AMD
KSHR 252222Z 2522/2618 30016KT 1SM -SN OVC008
      TEMPO 2522/2524 1/4SM +SN SCT005 OVC006
     FM261000 16004KT 3SM -SN BR SCT015 OVC020=



000
FTUS45 KBYZ 252222 AAC
TAFSHR
TAF AMD
KSHR 252222Z 2522/2618 30016KT 1SM -SN OVC008
      TEMPO 2522/2524 1/4SM +SN SCT005 OVC006
     FM261000 16004KT 3SM -SN BR SCT015 OVC020=



000
FTUS45 KBYZ 252142 AAB
TAFLVM
TAF AMD
KLVM 252142Z 2522/2618 33014G20KT 2SM -SN BR OVC015
     FM252300 35014KT 1SM -SN BR OVC012
     FM261000 24012KT 4SM -SN BR OVC025
     FM261600 22020KT 6SM -SN BKN025 OVC030=



000
FTUS45 KBYZ 252142 AAB
TAFLVM
TAF AMD
KLVM 252142Z 2522/2618 33014G20KT 2SM -SN BR OVC015
     FM252300 35014KT 1SM -SN BR OVC012
     FM261000 24012KT 4SM -SN BR OVC025
     FM261600 22020KT 6SM -SN BKN025 OVC030=



000
FTUS45 KBYZ 252142 AAB
TAFLVM
TAF AMD
KLVM 252142Z 2522/2618 33014G20KT 2SM -SN BR OVC015
     FM252300 35014KT 1SM -SN BR OVC012
     FM261000 24012KT 4SM -SN BR OVC025
     FM261600 22020KT 6SM -SN BKN025 OVC030=



000
FTUS45 KBYZ 252059 AAA
TAFLVM
TAF AMD
KLVM 252059Z 2521/2618 33014G20KT 1/2SM SN OVC008
     FM252300 35014KT 1SM -SN BR OVC012
     FM261000 24012KT 4SM -SN BR OVC025
     FM261600 22020KT 6SM -SN BKN025 OVC030=



000
FTUS45 KBYZ 252059 AAA
TAFLVM
TAF AMD
KLVM 252059Z 2521/2618 33014G20KT 1/2SM SN OVC008
     FM252300 35014KT 1SM -SN BR OVC012
     FM261000 24012KT 4SM -SN BR OVC025
     FM261600 22020KT 6SM -SN BKN025 OVC030=



000
FTUS45 KBYZ 252014 AAB
TAFSHR
TAF AMD
KSHR 252014Z 2520/2618 30022KT 1/2SM SN OVC008
      TEMPO 2520/2522 1SM -SN BR SCT005 OVC010
     FM261000 16004KT 3SM -SN BR SCT015 OVC020=



000
FTUS45 KBYZ 252014 AAB
TAFSHR
TAF AMD
KSHR 252014Z 2520/2618 30022KT 1/2SM SN OVC008
      TEMPO 2520/2522 1SM -SN BR SCT005 OVC010
     FM261000 16004KT 3SM -SN BR SCT015 OVC020=



000
FTUS45 KBYZ 251833 AAA
TAFSHR
TAF AMD
KSHR 251833Z 2519/2618 33014KT 1SM -SN BR FEW005 OVC006
     FM252000 32015KT P6SM VCSH FEW015 OVC020
     FM261000 16004KT 3SM -SN BR SCT015 OVC020=



000
FTUS45 KBYZ 251833 AAA
TAFSHR
TAF AMD
KSHR 251833Z 2519/2618 33014KT 1SM -SN BR FEW005 OVC006
     FM252000 32015KT P6SM VCSH FEW015 OVC020
     FM261000 16004KT 3SM -SN BR SCT015 OVC020=



000
FTUS45 KBYZ 251739
TAFLVM
TAF
KLVM 251739Z 2518/2618 25020G30KT P6SM -RA VCSH OVC025
     FM252000 25015KT 3SM -SN OVC025
     FM252300 35014KT 1SM -SN BR OVC012
     FM261000 24012KT 4SM -SN BR OVC025
     FM261600 22020KT 6SM -SN BKN025 OVC030=



000
FTUS45 KBYZ 251739
TAFBIL
TAF
KBIL 251739Z 2518/2618 33015KT P6SM -RA SCT025 OVC035
     FM252200 33015KT P6SM -SHRASN SCT020 OVC030
     FM260100 36010KT 3SM -SN BR OVC015
     FM260600 05006KT 2SM -SN BR OVC015
     FM260900 02005KT 1SM -SN BR OVC015=



000
FTUS45 KBYZ 251739
TAFLVM
TAF
KLVM 251739Z 2518/2618 25020G30KT P6SM -RA VCSH OVC025
     FM252000 25015KT 3SM -SN OVC025
     FM252300 35014KT 1SM -SN BR OVC012
     FM261000 24012KT 4SM -SN BR OVC025
     FM261600 22020KT 6SM -SN BKN025 OVC030=



000
FTUS45 KBYZ 251739
TAFMLS
TAF
KMLS 251739Z 2518/2618 29010KT P6SM -SHRASN FEW014 OVC024
     FM252000 31015KT P6SM VCSH BKN025 OVC040
     FM260600 33012KT P6SM VCSH BKN020
     FM261000 34006KT 3SM -SN BR SCT015 OVC020=



000
FTUS45 KBYZ 251739
TAFSHR
TAF
KSHR 251739Z 2518/2618 18004KT 5SM -SN BR FEW015 OVC019
     FM252000 32015KT P6SM VCSH FEW015 OVC020
     FM261000 16004KT 3SM -SN BR SCT015 OVC020=



000
FTUS45 KBYZ 251739
TAFMLS
TAF
KMLS 251739Z 2518/2618 29010KT P6SM -SHRASN FEW014 OVC024
     FM252000 31015KT P6SM VCSH BKN025 OVC040
     FM260600 33012KT P6SM VCSH BKN020
     FM261000 34006KT 3SM -SN BR SCT015 OVC020=



000
FTUS45 KBYZ 251739
TAFSHR
TAF
KSHR 251739Z 2518/2618 18004KT 5SM -SN BR FEW015 OVC019
     FM252000 32015KT P6SM VCSH FEW015 OVC020
     FM261000 16004KT 3SM -SN BR SCT015 OVC020=



000
FTUS45 KBYZ 251739
TAFBIL
TAF
KBIL 251739Z 2518/2618 33015KT P6SM -RA SCT025 OVC035
     FM252200 33015KT P6SM -SHRASN SCT020 OVC030
     FM260100 36010KT 3SM -SN BR OVC015
     FM260600 05006KT 2SM -SN BR OVC015
     FM260900 02005KT 1SM -SN BR OVC015=



000
FTUS45 KBYZ 251620 AAC
TAFSHR
TAF AMD
KSHR 251620Z 2516/2612 19003KT 1SM -SN BR SCT006 OVC030
     FM251800 27014KT 6SM -SN SCT005 OVC030
     FM252000 31018KT 3SM -SN BR OVC025=



000
FTUS45 KBYZ 251620 AAC
TAFSHR
TAF AMD
KSHR 251620Z 2516/2612 19003KT 1SM -SN BR SCT006 OVC030
     FM251800 27014KT 6SM -SN SCT005 OVC030
     FM252000 31018KT 3SM -SN BR OVC025=



000
FTUS45 KBYZ 251428 AAB
TAFSHR
TAF AMD
KSHR 251428Z 2514/2612 19003KT P6SM -SN SCT005 OVC035
     FM251500 27014KT 6SM -SN SCT005 OVC030
     FM252000 31018KT 3SM -SN BR OVC025=



000
FTUS45 KBYZ 251428 AAB
TAFSHR
TAF AMD
KSHR 251428Z 2514/2612 19003KT P6SM -SN SCT005 OVC035
     FM251500 27014KT 6SM -SN SCT005 OVC030
     FM252000 31018KT 3SM -SN BR OVC025=



000
FTUS45 KBYZ 251358 AAA
TAFSHR
TAF AMD
KSHR 251358Z 2514/2612 19003KT P6SM VCSH BKN005 BKN018 OVC035
     FM251500 27014KT 6SM -SN BKN040 OVC100
     FM252000 31018KT 3SM -SN BR OVC025=



000
FTUS45 KBYZ 251358 AAA
TAFSHR
TAF AMD
KSHR 251358Z 2514/2612 19003KT P6SM VCSH BKN005 BKN018 OVC035
     FM251500 27014KT 6SM -SN BKN040 OVC100
     FM252000 31018KT 3SM -SN BR OVC025=



000
FTUS45 KBYZ 251230 AAA
TAFMLS
TAF AMD
KMLS 251230Z 2513/2612 28012KT 4SM -SHSN OVC025
      TEMPO 2513/2514 2SM -SHSN BKN018
     FM251400 27016KT 3SM -SHSN BKN020
      TEMPO 2514/2516 1SM -SHSN BKN010
     FM251600 33019KT 5SM -SN BKN025 OVC040
     FM260000 33014KT P6SM VCSH BKN020=



000
FTUS45 KBYZ 251230 AAA
TAFMLS
TAF AMD
KMLS 251230Z 2513/2612 28012KT 4SM -SHSN OVC025
      TEMPO 2513/2514 2SM -SHSN BKN018
     FM251400 27016KT 3SM -SHSN BKN020
      TEMPO 2514/2516 1SM -SHSN BKN010
     FM251600 33019KT 5SM -SN BKN025 OVC040
     FM260000 33014KT P6SM VCSH BKN020=



000
FTUS45 KBYZ 251137
TAFBIL
TAF
KBIL 251137Z 2512/2612 24013G18KT P6SM -SN OVC040
     FM251700 29018G25KT P6SM -SN OVC025
     FM252300 34020KT 2SM -SN BR OVC015
     FM260300 02009KT 5SM -SN BR OVC030
     FM260800 05008KT 1SM -SN BR OVC015=



000
FTUS45 KBYZ 251137
TAFMLS
TAF
KMLS 251137Z 2512/2612 20004KT P6SM VCSH OVC050
     FM251500 27016KT 4SM -SHSN BKN030
      TEMPO 2515/2518 2SM -SHSN BKN020
     FM251800 33019KT 5SM -SN BKN025 OVC040
     FM260000 33014KT P6SM VCSH BKN020=



000
FTUS45 KBYZ 251137
TAFSHR
TAF
KSHR 251137Z 2512/2612 36007KT P6SM VCSH BKN050 OVC080
     FM251700 27014KT 6SM -SN BKN040 OVC100
     FM252000 31018KT 3SM -SN BR OVC025=



000
FTUS45 KBYZ 251137
TAFLVM
TAF
KLVM 251137Z 2512/2612 24034G50KT P6SM SCT045 BKN060 OVC100
     FM251700 24021G36KT P6SM VCSH BKN050
     FM252000 25015KT 3SM -SN OVC025
     FM252300 35014KT 1SM -SN BR OVC012
     FM261000 24012KT 4SM -SN BR OVC025=



000
FTUS45 KBYZ 251137
TAFSHR
TAF
KSHR 251137Z 2512/2612 36007KT P6SM VCSH BKN050 OVC080
     FM251700 27014KT 6SM -SN BKN040 OVC100
     FM252000 31018KT 3SM -SN BR OVC025=



000
FTUS45 KBYZ 251137
TAFMLS
TAF
KMLS 251137Z 2512/2612 20004KT P6SM VCSH OVC050
     FM251500 27016KT 4SM -SHSN BKN030
      TEMPO 2515/2518 2SM -SHSN BKN020
     FM251800 33019KT 5SM -SN BKN025 OVC040
     FM260000 33014KT P6SM VCSH BKN020=



000
FTUS45 KBYZ 251137
TAFLVM
TAF
KLVM 251137Z 2512/2612 24034G50KT P6SM SCT045 BKN060 OVC100
     FM251700 24021G36KT P6SM VCSH BKN050
     FM252000 25015KT 3SM -SN OVC025
     FM252300 35014KT 1SM -SN BR OVC012
     FM261000 24012KT 4SM -SN BR OVC025=



000
FTUS45 KBYZ 251137
TAFBIL
TAF
KBIL 251137Z 2512/2612 24013G18KT P6SM -SN OVC040
     FM251700 29018G25KT P6SM -SN OVC025
     FM252300 34020KT 2SM -SN BR OVC015
     FM260300 02009KT 5SM -SN BR OVC030
     FM260800 05008KT 1SM -SN BR OVC015=



000
FTUS45 KBYZ 250538
TAFMLS
TAF
KMLS 250538Z 2506/2606 24010KT P6SM SCT070 BKN250
     FM251300 26014KT 4SM -SHSN BKN050 OVC100
     FM252000 29015KT P6SM BKN025 OVC040=



000
FTUS45 KBYZ 250538
TAFSHR
TAF
KSHR 250538Z 2506/2606 30010KT P6SM BKN050 BKN080
     FM250800 24010KT P6SM BKN060 OVC150 WS020/27040KT
     FM251700 27010KT 6SM -SN BKN040 OVC100 WS020/30050KT=



000
FTUS45 KBYZ 250538
TAFBIL
TAF
KBIL 250538Z 2506/2606 24011KT P6SM SCT120
     FM250800 22015G25KT P6SM VCSH BKN060 OVC100
     FM251500 25018G25KT P6SM -SN OVC025
     FM260200 34015KT 3SM -SN BR OVC015=



000
FTUS45 KBYZ 250538
TAFLVM
TAF
KLVM 250538Z 2506/2606 22033G44KT P6SM VCSH BKN040 OVC080
     FM251100 22038G52KT 3SM -SN BLSN SCT020 OVC025
     FM252200 25015KT 3SM -SN OVC025=



000
FTUS45 KBYZ 250538
TAFBIL
TAF
KBIL 250538Z 2506/2606 24011KT P6SM SCT120
     FM250800 22015G25KT P6SM VCSH BKN060 OVC100
     FM251500 25018G25KT P6SM -SN OVC025
     FM260200 34015KT 3SM -SN BR OVC015=



000
FTUS45 KBYZ 250538
TAFSHR
TAF
KSHR 250538Z 2506/2606 30010KT P6SM BKN050 BKN080
     FM250800 24010KT P6SM BKN060 OVC150 WS020/27040KT
     FM251700 27010KT 6SM -SN BKN040 OVC100 WS020/30050KT=



000
FTUS45 KBYZ 250538
TAFMLS
TAF
KMLS 250538Z 2506/2606 24010KT P6SM SCT070 BKN250
     FM251300 26014KT 4SM -SHSN BKN050 OVC100
     FM252000 29015KT P6SM BKN025 OVC040=



000
FTUS45 KBYZ 250538
TAFLVM
TAF
KLVM 250538Z 2506/2606 22033G44KT P6SM VCSH BKN040 OVC080
     FM251100 22038G52KT 3SM -SN BLSN SCT020 OVC025
     FM252200 25015KT 3SM -SN OVC025=



000
FTUS45 KBYZ 242335
TAFMLS
TAF
KMLS 242335Z 2500/2524 30010KT P6SM VCSH SCT030 BKN070
     FM250300 24010KT P6SM SCT070 BKN250
     FM251300 26014KT 4SM -SHSN BKN050 OVC100
     FM252000 29018KT P6SM BKN025 OVC040=



000
FTUS45 KBYZ 242335
TAFBIL
TAF
KBIL 242335Z 2500/2524 29015G25KT P6SM VCSH SCT050 BKN100
     FM250100 24012KT P6SM FEW060 BKN120
     FM250600 22015G25KT P6SM VCSH BKN060 OVC100
     FM251200 25018G25KT 4SM -SN OVC025=



000
FTUS45 KBYZ 242335
TAFSHR
TAF
KSHR 242335Z 2500/2524 30022G32KT P6SM -SN BKN060
     FM250100 30010KT P6SM BKN050 BKN080
     FM250800 24010KT P6SM BKN060 OVC150 WS020/27040KT
     FM251700 27010KT P6SM VCSH BKN040 OVC100 WS020/30050KT=



000
FTUS45 KBYZ 242335
TAFLVM
TAF
KLVM 242335Z 2500/2524 24020G30KT P6SM VCSH BKN060 OVC100
     FM250300 24030G40KT P6SM VCSH BKN060 OVC100
     FM250600 22040G55KT P6SM VCSH BKN040 OVC080
     FM251100 22040G55KT 3SM -SN BLSN SCT020 OVC040=



000
FTUS45 KBYZ 242335
TAFBIL
TAF
KBIL 242335Z 2500/2524 29015G25KT P6SM VCSH SCT050 BKN100
     FM250100 24012KT P6SM FEW060 BKN120
     FM250600 22015G25KT P6SM VCSH BKN060 OVC100
     FM251200 25018G25KT 4SM -SN OVC025=



000
FTUS45 KBYZ 242335
TAFSHR
TAF
KSHR 242335Z 2500/2524 30022G32KT P6SM -SN BKN060
     FM250100 30010KT P6SM BKN050 BKN080
     FM250800 24010KT P6SM BKN060 OVC150 WS020/27040KT
     FM251700 27010KT P6SM VCSH BKN040 OVC100 WS020/30050KT=



000
FTUS45 KBYZ 242335
TAFMLS
TAF
KMLS 242335Z 2500/2524 30010KT P6SM VCSH SCT030 BKN070
     FM250300 24010KT P6SM SCT070 BKN250
     FM251300 26014KT 4SM -SHSN BKN050 OVC100
     FM252000 29018KT P6SM BKN025 OVC040=



000
FTUS45 KBYZ 242335
TAFLVM
TAF
KLVM 242335Z 2500/2524 24020G30KT P6SM VCSH BKN060 OVC100
     FM250300 24030G40KT P6SM VCSH BKN060 OVC100
     FM250600 22040G55KT P6SM VCSH BKN040 OVC080
     FM251100 22040G55KT 3SM -SN BLSN SCT020 OVC040=



000
FTUS45 KBYZ 241720
TAFSHR
TAF
KSHR 241720Z 2418/2518 31022G32KT P6SM VCSH SCT060 OVC120
     FM250100 30010KT P6SM FEW050 SCT120 BKN250
     FM250800 24010KT P6SM BKN060 OVC150 WS020/27040KT
     FM251200 27010KT P6SM VCSH BKN040 OVC100 WS020/30050KT=



000
FTUS45 KBYZ 241720
TAFLVM
TAF
KLVM 241720Z 2418/2518 24020G30KT P6SM VCSH BKN060 OVC100
     FM250300 24030G40KT P6SM VCSH BKN060 OVC100
     FM250600 22040G55KT P6SM VCSH BKN040 OVC080
     FM251100 22040G55KT 3SM -SN BLSN SCT020 OVC040=



000
FTUS45 KBYZ 241720
TAFSHR
TAF
KSHR 241720Z 2418/2518 31022G32KT P6SM VCSH SCT060 OVC120
     FM250100 30010KT P6SM FEW050 SCT120 BKN250
     FM250800 24010KT P6SM BKN060 OVC150 WS020/27040KT
     FM251200 27010KT P6SM VCSH BKN040 OVC100 WS020/30050KT=



000
FTUS45 KBYZ 241720
TAFLVM
TAF
KLVM 241720Z 2418/2518 24020G30KT P6SM VCSH BKN060 OVC100
     FM250300 24030G40KT P6SM VCSH BKN060 OVC100
     FM250600 22040G55KT P6SM VCSH BKN040 OVC080
     FM251100 22040G55KT 3SM -SN BLSN SCT020 OVC040=



000
FTUS45 KBYZ 241720
TAFBIL
TAF
KBIL 241720Z 2418/2518 29015G25KT P6SM VCSH SCT050 BKN100
     FM250300 24015KT P6SM FEW060 BKN120
     FM250900 22015G25KT P6SM VCSH BKN060 OVC100 WS020/28050KT=



000
FTUS45 KBYZ 241720
TAFMLS
TAF
KMLS 241720Z 2418/2518 33015G25KT P6SM VCSH BKN030 BKN100
     FM242000 30018KT P6SM VCSH SCT030 BKN070
     FM250300 28010KT P6SM SCT070 BKN250
     FM251000 25012KT P6SM -SHSN BKN050 OVC100
     FM251500 27018KT 4SM -SHSN BKN025 OVC040=



000
FTUS45 KBYZ 241720
TAFBIL
TAF
KBIL 241720Z 2418/2518 29015G25KT P6SM VCSH SCT050 BKN100
     FM250300 24015KT P6SM FEW060 BKN120
     FM250900 22015G25KT P6SM VCSH BKN060 OVC100 WS020/28050KT=



000
FTUS45 KBYZ 241720
TAFMLS
TAF
KMLS 241720Z 2418/2518 33015G25KT P6SM VCSH BKN030 BKN100
     FM242000 30018KT P6SM VCSH SCT030 BKN070
     FM250300 28010KT P6SM SCT070 BKN250
     FM251000 25012KT P6SM -SHSN BKN050 OVC100
     FM251500 27018KT 4SM -SHSN BKN025 OVC040=



000
FTUS45 KBYZ 241251 AAA
TAFSHR
TAF AMD
KSHR 241251Z 2413/2512 32012KT 4SM -SN BR VCSH FEW008 OVC020
      TEMPO 2413/2415 31021G31KT 1 1/2SM -SHSN BKN012
     FM241500 31023G31KT P6SM OVC060
     FM250100 30010KT P6SM OVC250=



000
FTUS45 KBYZ 241251 AAA
TAFSHR
TAF AMD
KSHR 241251Z 2413/2512 32012KT 4SM -SN BR VCSH FEW008 OVC020
      TEMPO 2413/2415 31021G31KT 1 1/2SM -SHSN BKN012
     FM241500 31023G31KT P6SM OVC060
     FM250100 30010KT P6SM OVC250=



000
FTUS45 KBYZ 241136
TAFSHR
TAF
KSHR 241136Z 2412/2512 31015KT P6SM VCSH OVC050
      TEMPO 2412/2415 31021G31KT 4SM -SHSN BKN030
     FM241500 31023G31KT P6SM OVC060
     FM250100 30010KT P6SM OVC250=



000
FTUS45 KBYZ 241136
TAFMLS
TAF
KMLS 241136Z 2412/2512 32009KT 2SM -SN BR SCT012 OVC025
     FM241400 32016KT P6SM BKN040
     FM250100 28008KT P6SM BKN070
     FM250900 20010KT P6SM VCSH BKN050=



000
FTUS45 KBYZ 241136
TAFBIL
TAF
KBIL 241136Z 2412/2512 29016KT P6SM VCSH SCT050 OVC090
     FM241500 31021G27KT P6SM VCSH OVC060
     FM250100 27011KT P6SM BKN250
     FM251000 24015KT P6SM VCSH BKN060=



000
FTUS45 KBYZ 241136
TAFLVM
TAF
KLVM 241136Z 2412/2512 24016KT P6SM OVC060
     FM241600 26025G34KT P6SM BKN100
     FM250300 23037G49KT P6SM OVC100=



000
FTUS45 KBYZ 241136
TAFSHR
TAF
KSHR 241136Z 2412/2512 31015KT P6SM VCSH OVC050
      TEMPO 2412/2415 31021G31KT 4SM -SHSN BKN030
     FM241500 31023G31KT P6SM OVC060
     FM250100 30010KT P6SM OVC250=



000
FTUS45 KBYZ 241136
TAFLVM
TAF
KLVM 241136Z 2412/2512 24016KT P6SM OVC060
     FM241600 26025G34KT P6SM BKN100
     FM250300 23037G49KT P6SM OVC100=



000
FTUS45 KBYZ 241136
TAFMLS
TAF
KMLS 241136Z 2412/2512 32009KT 2SM -SN BR SCT012 OVC025
     FM241400 32016KT P6SM BKN040
     FM250100 28008KT P6SM BKN070
     FM250900 20010KT P6SM VCSH BKN050=



000
FTUS45 KBYZ 241136
TAFBIL
TAF
KBIL 241136Z 2412/2512 29016KT P6SM VCSH SCT050 OVC090
     FM241500 31021G27KT P6SM VCSH OVC060
     FM250100 27011KT P6SM BKN250
     FM251000 24015KT P6SM VCSH BKN060=



000
FTUS45 KBYZ 241027 AAA
TAFMLS
TAF AMD
KMLS 241027Z 2410/2506 00000KT 3SM -SN BR FEW009 OVC030
     FM241130 31007KT P6SM VCSH OVC060
     FM250100 28008KT P6SM BKN250=



000
FTUS45 KBYZ 241027 AAA
TAFMLS
TAF AMD
KMLS 241027Z 2410/2506 00000KT 3SM -SN BR FEW009 OVC030
     FM241130 31007KT P6SM VCSH OVC060
     FM250100 28008KT P6SM BKN250=



000
FTUS45 KBYZ 240529
TAFBIL
TAF
KBIL 240529Z 2406/2506 28009KT P6SM VCSH BKN060 OVC090
     FM241300 28016G23KT P6SM VCSH BKN080
     FM241800 31021G27KT P6SM VCSH OVC060
     FM250100 27011KT P6SM BKN250=



000
FTUS45 KBYZ 240529
TAFLVM
TAF
KLVM 240529Z 2406/2506 24025G35KT P6SM VCSH BKN050 OVC070
     FM240900 25021G31KT P6SM -SHSN BKN040
      TEMPO 2409/2411 2SM -SHSN BKN020
     FM241400 25018G28KT P6SM VCSH BKN080
     FM241800 25024G32KT P6SM BKN100
     FM250300 23037G49KT P6SM OVC100=



000
FTUS45 KBYZ 240529
TAFSHR
TAF
KSHR 240529Z 2406/2506 32008KT P6SM SCT050
     FM241200 30012KT P6SM VCSH SCT060 BKN100
     FM241700 31023G31KT P6SM OVC060
     FM250100 30010KT P6SM OVC250=



000
FTUS45 KBYZ 240529
TAFMLS
TAF
KMLS 240529Z 2406/2506 34006KT P6SM SCT100
     FM241100 31007KT P6SM VCSH OVC060
     FM250100 28008KT P6SM BKN250=



000
FTUS45 KBYZ 240529
TAFBIL
TAF
KBIL 240529Z 2406/2506 28009KT P6SM VCSH BKN060 OVC090
     FM241300 28016G23KT P6SM VCSH BKN080
     FM241800 31021G27KT P6SM VCSH OVC060
     FM250100 27011KT P6SM BKN250=



000
FTUS45 KBYZ 240529
TAFLVM
TAF
KLVM 240529Z 2406/2506 24025G35KT P6SM VCSH BKN050 OVC070
     FM240900 25021G31KT P6SM -SHSN BKN040
      TEMPO 2409/2411 2SM -SHSN BKN020
     FM241400 25018G28KT P6SM VCSH BKN080
     FM241800 25024G32KT P6SM BKN100
     FM250300 23037G49KT P6SM OVC100=



000
FTUS45 KBYZ 240529
TAFSHR
TAF
KSHR 240529Z 2406/2506 32008KT P6SM SCT050
     FM241200 30012KT P6SM VCSH SCT060 BKN100
     FM241700 31023G31KT P6SM OVC060
     FM250100 30010KT P6SM OVC250=



000
FTUS45 KBYZ 240529
TAFMLS
TAF
KMLS 240529Z 2406/2506 34006KT P6SM SCT100
     FM241100 31007KT P6SM VCSH OVC060
     FM250100 28008KT P6SM BKN250=



000
FTUS45 KBYZ 240431 AAB
TAFLVM
TAF AMD
KLVM 240431Z 2405/2424 24020KT 1SM -SN BKN020 OVC040
      TEMPO 2405/2406 24020G30KT 3SM -RASN BKN050 OVC070
     FM241400 25018G28KT P6SM VCSH BKN080
     FM241800 25024G32KT P6SM BKN100=



000
FTUS45 KBYZ 240431 AAB
TAFLVM
TAF AMD
KLVM 240431Z 2405/2424 24020KT 1SM -SN BKN020 OVC040
      TEMPO 2405/2406 24020G30KT 3SM -RASN BKN050 OVC070
     FM241400 25018G28KT P6SM VCSH BKN080
     FM241800 25024G32KT P6SM BKN100=



000
FTUS45 KBYZ 240413 AAA
TAFLVM
TAF AMD
KLVM 240413Z 2404/2424 24020G30KT P6SM VCSH BKN050 OVC070
     FM241400 25018G28KT P6SM VCSH BKN080
     FM241800 25024G32KT P6SM BKN100=



000
FTUS45 KBYZ 240413 AAA
TAFLVM
TAF AMD
KLVM 240413Z 2404/2424 24020G30KT P6SM VCSH BKN050 OVC070
     FM241400 25018G28KT P6SM VCSH BKN080
     FM241800 25024G32KT P6SM BKN100=



000
FTUS45 KBYZ 240413 AAA
TAFLVM
TAF AMD
KLVM 240413Z 2404/2424 24020G30KT P6SM VCSH BKN050 OVC070
     FM241400 25018G28KT P6SM VCSH BKN080
     FM241800 25024G32KT P6SM BKN100=



000
FTUS45 KBYZ 240413 AAA
TAFLVM
TAF AMD
KLVM 240413Z 2404/2424 24020G30KT P6SM VCSH BKN050 OVC070
     FM241400 25018G28KT P6SM VCSH BKN080
     FM241800 25024G32KT P6SM BKN100=



000
FTUS45 KBYZ 232320
TAFMLS
TAF
KMLS 232320Z 2400/2424 31012KT P6SM FEW070 OVC100
     FM240300 32006KT P6SM SCT100
     FM241100 31007KT P6SM VCSH OVC060=



000
FTUS45 KBYZ 232320
TAFBIL
TAF
KBIL 232320Z 2400/2424 27014G24KT P6SM SCT100
     FM240100 26014KT P6SM SCT100
     FM240700 27016KT P6SM VCSH BKN080
     FM241200 27017G24KT P6SM VCSH BKN080=



000
FTUS45 KBYZ 232320
TAFSHR
TAF
KSHR 232320Z 2400/2424 32012G22KT P6SM VCSH SCT060 BKN080
     FM240200 30008KT P6SM SCT050 BKN100
     FM241200 30012KT P6SM VCSH SCT060 BKN100
     FM241700 31023G31KT P6SM OVC060=



000
FTUS45 KBYZ 232320
TAFLVM
TAF
KLVM 232320Z 2400/2424 25020G30KT P6SM FEW040 BKN080
     FM240400 23028G38KT P6SM VCSH BKN080
     FM241400 25018G28KT P6SM VCSH BKN080
     FM241800 25024G32KT P6SM BKN100=



000
FTUS45 KBYZ 232320
TAFSHR
TAF
KSHR 232320Z 2400/2424 32012G22KT P6SM VCSH SCT060 BKN080
     FM240200 30008KT P6SM SCT050 BKN100
     FM241200 30012KT P6SM VCSH SCT060 BKN100
     FM241700 31023G31KT P6SM OVC060=



000
FTUS45 KBYZ 232320
TAFLVM
TAF
KLVM 232320Z 2400/2424 25020G30KT P6SM FEW040 BKN080
     FM240400 23028G38KT P6SM VCSH BKN080
     FM241400 25018G28KT P6SM VCSH BKN080
     FM241800 25024G32KT P6SM BKN100=



000
FTUS45 KBYZ 232320
TAFBIL
TAF
KBIL 232320Z 2400/2424 27014G24KT P6SM SCT100
     FM240100 26014KT P6SM SCT100
     FM240700 27016KT P6SM VCSH BKN080
     FM241200 27017G24KT P6SM VCSH BKN080=



000
FTUS45 KBYZ 232320
TAFMLS
TAF
KMLS 232320Z 2400/2424 31012KT P6SM FEW070 OVC100
     FM240300 32006KT P6SM SCT100
     FM241100 31007KT P6SM VCSH OVC060=



000
FTUS45 KBYZ 231733
TAFMLS
TAF
KMLS 231733Z 2318/2418 31022G32KT P6SM BKN080
     FM232200 31014KT P6SM SCT080
     FM240200 31006KT P6SM SCT100=



000
FTUS45 KBYZ 231733
TAFBIL
TAF
KBIL 231733Z 2318/2418 27014G24KT P6SM SCT100
     FM232000 31016G26KT P6SM SCT100
     FM240100 26014KT P6SM SCT100
     FM240700 27016KT P6SM VCSH BKN080=



000
FTUS45 KBYZ 231733
TAFSHR
TAF
KSHR 231733Z 2318/2418 32022G32KT P6SM VCSH BKN080
     FM232100 32014G24KT P6SM BKN080
     FM240100 30008KT P6SM SCT100=



000
FTUS45 KBYZ 231733
TAFLVM
TAF
KLVM 231733Z 2318/2418 25020G30KT P6SM FEW040 BKN080
     FM240400 23028G38KT P6SM VCSH BKN080
     FM241400 25018G28KT P6SM VCSH BKN080=



000
FTUS45 KBYZ 231733
TAFLVM
TAF
KLVM 231733Z 2318/2418 25020G30KT P6SM FEW040 BKN080
     FM240400 23028G38KT P6SM VCSH BKN080
     FM241400 25018G28KT P6SM VCSH BKN080=



000
FTUS45 KBYZ 231733
TAFBIL
TAF
KBIL 231733Z 2318/2418 27014G24KT P6SM SCT100
     FM232000 31016G26KT P6SM SCT100
     FM240100 26014KT P6SM SCT100
     FM240700 27016KT P6SM VCSH BKN080=



000
FTUS45 KBYZ 231733
TAFMLS
TAF
KMLS 231733Z 2318/2418 31022G32KT P6SM BKN080
     FM232200 31014KT P6SM SCT080
     FM240200 31006KT P6SM SCT100=



000
FTUS45 KBYZ 231733
TAFSHR
TAF
KSHR 231733Z 2318/2418 32022G32KT P6SM VCSH BKN080
     FM232100 32014G24KT P6SM BKN080
     FM240100 30008KT P6SM SCT100=



    US Dept of Commerce
    National Oceanic and Atmospheric Administration
    National Weather Service
    1325 East West Highway
    Silver Spring, MD 20910
    Page Author: NWS Internet Services Team
Disclaimer
Information Quality
Credits
Glossary
Privacy Policy
Freedom of Information Act (FOIA)
About Us
Career Opportunities